Terminal Aerodrome Forecast
Issued by NWS

Home | Current Version | Previous Version | Text Only | Print | Product List | Glossary On
Versions: 1 2 3 4 5 6 7 8 9 10 11 12 13 14 15 16 17 18 19 20 21
000
FTUS46 KSEW 271503 AAA
TAFSEA
TAF AMD
KSEA 271503Z 2715/2818 00000KT P6SM FEW002 FEW200
     FM271630 VRB03KT P6SM FEW200
     FM272000 32008KT P6SM SCT200
     FM280400 04006KT P6SM SKC=

USA.gov is the U.S. government's official web portal to all federal, state and local government web resources and services.